Time;durP1;ratioP1;P1;durP2;ratioP2;P2;SDS_P1;SDS_P2;PMS_P1;PMS_P2;Temp;Humidity;BMP_temperature;BMP_pressure;BME280_temperature;BME280_humidity;BME280_pressure;Samples;Min_cycle;Max_cycle;Signal;HPM_P1;HPM_P2
2023/04/24 00:01:00;;;;;;;7.70;5.00;;;;;;;18.79;52.05;99932.66;5039409;28;20049;-41
2023/04/24 00:03:27;;;;;;;6.85;4.85;;;;;;;18.78;52.17;99931.00;5038822;28;20045;-41
2023/04/24 00:05:55;;;;;;;7.22;4.47;;;;;;;18.77;52.21;99939.22;5020736;28;20049;-42
2023/04/24 00:08:22;;;;;;;7.00;4.55;;;;;;;18.76;52.07;99941.06;5035595;28;20448;-41
2023/04/24 00:10:49;;;;;;;6.65;4.72;;;;;;;18.76;52.40;99937.53;5033793;28;20124;-41
2023/04/24 00:13:15;;;;;;;7.40;4.07;;;;;;;18.74;52.52;99935.88;5031076;28;20373;-42
2023/04/24 00:15:42;;;;;;;8.55;4.65;;;;;;;18.75;52.32;99944.78;5037665;28;20095;-41
2023/04/24 00:18:09;;;;;;;6.35;4.05;;;;;;;18.72;52.42;99945.94;5034613;28;20345;-41
2023/04/24 00:20:35;;;;;;;7.47;4.78;;;;;;;18.71;52.13;99946.97;5028898;28;20037;-40
2023/04/24 00:23:02;;;;;;;6.13;4.07;;;;;;;18.70;52.10;99947.16;5036755;28;20057;-42
2023/04/24 00:25:29;;;;;;;6.28;3.90;;;;;;;18.68;52.16;99958.03;5031499;28;20041;-42
2023/04/24 00:27:55;;;;;;;5.55;3.78;;;;;;;18.69;52.31;99959.72;5035405;28;20337;-42
2023/04/24 00:30:22;;;;;;;6.57;4.28;;;;;;;18.67;52.48;99967.09;5036065;28;20099;-41
2023/04/24 00:32:48;;;;;;;6.13;4.28;;;;;;;18.67;52.04;99971.66;5031782;28;20053;-42
2023/04/24 00:35:15;;;;;;;6.28;4.00;;;;;;;18.65;52.16;99963.78;5032080;28;20049;-42
2023/04/24 00:37:42;;;;;;;6.15;4.07;;;;;;;18.65;52.48;99961.09;5030148;28;20067;-41
2023/04/24 00:40:09;;;;;;;5.35;3.80;;;;;;;18.65;52.18;99971.84;5029801;28;20053;-41
2023/04/24 00:42:36;;;;;;;6.50;4.32;;;;;;;18.64;52.29;99970.13;5033786;28;20408;-42
2023/04/24 00:45:03;;;;;;;5.75;3.70;;;;;;;18.62;52.51;99966.81;5030957;28;20127;-41
2023/04/24 00:47:31;;;;;;;5.95;3.80;;;;;;;18.62;52.70;99964.13;5031385;28;20053;-40
2023/04/24 00:49:58;;;;;;;6.70;4.05;;;;;;;18.62;52.73;99976.72;5028476;28;20049;-42
2023/04/24 00:52:25;;;;;;;5.22;3.53;;;;;;;18.61;52.31;99975.84;5032574;28;20319;-41
2023/04/24 00:54:51;;;;;;;5.68;3.75;;;;;;;18.60;52.17;99968.00;5043736;28;20057;-40
2023/04/24 00:57:18;;;;;;;5.60;3.20;;;;;;;18.60;52.27;99968.00;5031501;28;20049;-40
2023/04/24 00:59:45;;;;;;;6.35;3.40;;;;;;;18.58;52.34;99973.56;5031208;28;20050;-42
2023/04/24 01:02:12;;;;;;;6.22;3.15;;;;;;;18.60;52.78;99978.72;5029571;28;20053;-41
2023/04/24 01:04:40;;;;;;;5.57;3.35;;;;;;;18.58;52.39;99970.88;5029407;28;20055;-41
2023/04/24 01:07:10;;;;;;;5.53;3.38;;;;;;;18.58;52.25;99981.59;5032001;28;20053;-42
2023/04/24 01:09:41;;;;;;;4.65;3.20;;;;;;;18.58;52.62;99983.47;5030386;28;20140;-42
2023/04/24 01:12:09;;;;;;;4.80;3.20;;;;;;;18.57;52.29;99984.44;5030110;28;20046;-42
2023/04/24 01:14:36;;;;;;;5.10;3.17;;;;;;;18.56;52.41;99980.94;5032641;28;20053;-41
2023/04/24 01:17:02;;;;;;;4.90;2.95;;;;;;;18.57;52.03;99976.41;5032154;28;20046;-42
2023/04/24 01:19:29;;;;;;;4.53;3.17;;;;;;;18.56;52.47;99978.25;5031846;28;20041;-42
2023/04/24 01:21:59;;;;;;;5.28;3.40;;;;;;;18.55;51.96;99979.28;5030923;28;20060;-42
2023/04/24 01:24:25;;;;;;;5.18;3.53;;;;;;;18.55;52.37;99984.63;5031401;28;20456;-41
2023/04/24 01:26:52;;;;;;;4.85;3.08;;;;;;;18.54;52.26;99993.72;5032022;28;20051;-41
2023/04/24 01:29:19;;;;;;;4.30;2.70;;;;;;;18.54;52.46;99988.34;5030140;28;20446;-41
2023/04/24 01:31:46;;;;;;;4.00;2.83;;;;;;;18.53;52.38;99989.34;5029155;28;20081;-40
2023/04/24 01:34:13;;;;;;;5.05;3.00;;;;;;;18.52;52.21;99989.53;5032468;28;20060;-42
2023/04/24 01:36:41;;;;;;;4.53;3.00;;;;;;;18.52;52.29;99990.34;5032956;28;20177;-40
2023/04/24 01:39:08;;;;;;;6.53;3.22;;;;;;;18.52;52.35;99994.88;5031741;28;20049;-41
2023/04/24 01:41:34;;;;;;;4.28;2.90;;;;;;;18.51;52.70;99986.00;5033458;28;20467;-41
2023/04/24 01:44:02;;;;;;;4.82;2.90;;;;;;;18.50;52.56;99995.09;5028501;28;20056;-41
2023/04/24 01:46:28;;;;;;;4.15;2.88;;;;;;;18.50;52.39;99995.09;5032352;28;20500;-40
2023/04/24 01:48:56;;;;;;;4.50;3.00;;;;;;;18.50;52.47;99992.41;5030624;28;20352;-41
2023/04/24 01:51:22;;;;;;;5.18;3.05;;;;;;;18.50;52.27;99995.91;5031708;28;20073;-41
2023/04/24 01:53:49;;;;;;;3.92;2.30;;;;;;;18.49;52.01;99988.03;5033689;28;20060;-41
2023/04/24 01:56:16;;;;;;;4.05;2.83;;;;;;;18.50;52.11;99995.09;5032003;28;20045;-42
2023/04/24 01:58:43;;;;;;;3.70;2.30;;;;;;;18.49;52.26;99993.38;5029531;28;20076;-42
2023/04/24 02:01:17;;;;;;;3.50;2.42;;;;;;;18.49;52.13;99993.38;5029116;28;20053;-41
2023/04/24 02:03:44;;;;;;;4.00;2.63;;;;;;;18.48;52.09;99986.34;5031041;28;20425;-40
2023/04/24 02:06:11;;;;;;;5.38;3.17;;;;;;;18.48;51.74;99989.03;5032535;28;20045;-41
2023/04/24 02:08:37;;;;;;;3.75;2.63;;;;;;;18.47;52.02;99993.56;5029721;28;20057;-40
2023/04/24 02:11:04;;;;;;;4.72;2.60;;;;;;;18.46;52.08;99993.75;5028705;28;20049;-41
2023/04/24 02:13:31;;;;;;;3.67;2.70;;;;;;;18.45;52.14;99995.63;5033752;28;20068;-41
2023/04/24 02:16:00;;;;;;;3.95;2.72;;;;;;;18.44;52.48;99987.72;5031922;28;20065;-41
2023/04/24 02:18:27;;;;;;;4.45;2.80;;;;;;;18.45;52.41;99992.06;5034242;28;20053;-40
2023/04/24 02:20:54;;;;;;;3.78;2.40;;;;;;;18.44;52.59;99993.09;5034970;28;20045;-42
2023/04/24 02:23:20;;;;;;;4.30;2.90;;;;;;;18.43;52.40;99994.94;5032796;28;20049;-42
2023/04/24 02:25:47;;;;;;;4.22;2.28;;;;;;;18.43;52.57;99994.13;5036112;28;20345;-41
2023/04/24 02:28:13;;;;;;;2.85;1.95;;;;;;;18.42;52.43;99989.75;5035831;28;20607;-42
2023/04/24 02:30:40;;;;;;;2.67;2.22;;;;;;;18.42;52.56;100000.50;5032562;28;20065;-42
2023/04/24 02:33:07;;;;;;;3.80;2.33;;;;;;;18.41;52.42;99996.97;5032840;28;20104;-42
2023/04/24 02:35:33;;;;;;;4.03;2.60;;;;;;;18.40;52.47;99991.78;5035330;28;20052;-42
2023/04/24 02:38:00;;;;;;;3.47;2.22;;;;;;;18.40;52.46;99999.81;5029802;28;20053;-41
2023/04/24 02:40:26;;;;;;;3.03;2.35;;;;;;;18.40;52.66;99997.97;5037570;28;20041;-42
2023/04/24 02:42:53;;;;;;;3.28;2.10;;;;;;;18.39;52.41;99998.16;5034340;28;20061;-42
2023/04/24 02:45:19;;;;;;;3.40;2.22;;;;;;;18.39;52.42;100000.84;5035919;28;20053;-42
2023/04/24 02:47:46;;;;;;;3.20;2.30;;;;;;;18.39;52.11;99995.47;5035333;28;20144;-41
2023/04/24 02:50:12;;;;;;;3.92;2.40;;;;;;;18.38;52.53;99996.50;5034133;28;20051;-42
2023/04/24 02:52:39;;;;;;;2.47;1.75;;;;;;;18.38;52.52;99989.28;5030672;28;20425;-41
2023/04/24 02:55:07;;;;;;;3.28;2.28;;;;;;;18.37;52.39;99992.97;5032201;28;20608;-42
2023/04/24 02:57:34;;;;;;;4.30;2.00;;;;;;;18.36;52.07;99991.28;5031945;28;20595;-40
2023/04/24 03:00:00;;;;;;;2.38;1.70;;;;;;;18.36;52.36;99998.50;5035101;28;20049;-41
2023/04/24 03:02:27;;;;;;;3.30;2.13;;;;;;;18.36;52.17;99995.81;5029997;28;20132;-41
2023/04/24 03:04:54;;;;;;;3.28;2.05;;;;;;;18.34;51.86;99990.66;5032150;28;20596;-40
2023/04/24 03:07:21;;;;;;;3.13;1.88;;;;;;;18.34;52.40;99995.19;5031100;28;20072;-42
2023/04/24 03:09:48;;;;;;;2.95;2.03;;;;;;;18.33;52.34;99988.13;5041669;28;20076;-40
2023/04/24 03:12:14;;;;;;;2.95;2.03;;;;;;;18.33;52.17;99988.13;5030592;28;20053;-41
2023/04/24 03:14:41;;;;;;;2.78;1.90;;;;;;;18.32;52.34;99989.97;5037854;28;20057;-40
2023/04/24 03:17:07;;;;;;;3.08;1.92;;;;;;;18.33;52.09;99988.13;5028976;28;20060;-40
2023/04/24 03:19:34;;;;;;;2.20;1.63;;;;;;;18.32;51.98;99984.59;5033185;28;20060;-40
2023/04/24 03:22:02;;;;;;;2.50;1.88;;;;;;;18.32;52.60;99989.13;5039368;28;20048;-41
2023/04/24 03:24:30;;;;;;;2.47;1.60;;;;;;;18.32;52.32;99989.97;5033273;28;20049;-41
2023/04/24 03:26:57;;;;;;;2.30;1.70;;;;;;;18.32;52.44;99992.66;5032016;28;20154;-42
2023/04/24 03:29:23;;;;;;;3.05;1.92;;;;;;;18.31;52.22;99991.00;5035447;28;20049;-40
2023/04/24 03:31:50;;;;;;;3.58;1.95;;;;;;;18.31;52.56;99990.16;5035565;28;20051;-42
2023/04/24 03:34:16;;;;;;;2.55;1.88;;;;;;;18.30;52.31;99981.28;5037705;28;20132;-42
2023/04/24 03:36:43;;;;;;;2.55;1.90;;;;;;;18.29;52.03;99978.75;5039758;28;20076;-39
2023/04/24 03:39:10;;;;;;;3.47;1.90;;;;;;;18.30;52.32;99985.81;5040397;28;20140;-41
2023/04/24 03:41:36;;;;;;;2.45;1.58;;;;;;;18.30;52.08;99983.97;5036468;28;20048;-42
2023/04/24 03:44:03;;;;;;;2.50;1.90;;;;;;;18.29;52.32;99982.31;5040681;28;20060;-41
2023/04/24 03:46:29;;;;;;;2.78;1.55;;;;;;;18.29;52.01;99981.44;5034040;28;20049;-41
2023/04/24 03:48:56;;;;;;;3.40;1.73;;;;;;;18.29;51.85;99973.38;5030907;28;20481;-42
2023/04/24 03:51:23;;;;;;;2.70;1.70;;;;;;;18.30;52.35;99975.09;5029680;28;20405;-40
2023/04/24 03:53:49;;;;;;;3.05;2.13;;;;;;;18.29;52.08;99978.75;5045462;28;20061;-41
2023/04/24 03:56:16;;;;;;;3.03;2.00;;;;;;;18.28;52.15;99979.78;5028817;28;20053;-41
2023/04/24 03:58:43;;;;;;;2.47;1.60;;;;;;;18.28;52.35;99983.28;5027264;28;20429;-41
2023/04/24 04:01:11;;;;;;;2.75;1.60;;;;;;;18.28;52.04;99977.91;5029828;28;20133;-41
2023/04/24 04:03:38;;;;;;;2.42;1.77;;;;;;;18.28;52.16;99977.91;5031515;28;20387;-41
2023/04/24 04:06:05;;;;;;;2.58;1.60;;;;;;;18.28;51.93;99980.59;5032626;28;20053;-41
2023/04/24 04:08:31;;;;;;;2.38;1.60;;;;;;;18.28;52.50;99991.34;5032080;28;20401;-41
2023/04/24 04:10:58;;;;;;;2.70;1.73;;;;;;;18.28;51.77;99982.47;5034322;28;20053;-40
2023/04/24 04:13:24;;;;;;;1.48;1.33;;;;;;;18.28;51.98;99988.66;5028036;28;20053;-42
2023/04/24 04:15:51;;;;;;;2.22;1.65;;;;;;;18.28;51.59;99995.88;5029019;28;20056;-42
2023/04/24 04:18:17;;;;;;;2.05;1.33;;;;;;;18.25;52.14;99984.50;5032330;28;20045;-42
2023/04/24 04:20:44;;;;;;;2.22;1.60;;;;;;;18.26;51.53;99993.38;5029358;28;20384;-42
2023/04/24 04:23:11;;;;;;;1.92;1.63;;;;;;;18.26;51.83;100014.84;5038389;28;20401;-42
2023/04/24 04:25:37;;;;;;;2.88;1.50;;;;;;;18.25;51.97;100016.69;5031643;28;20052;-42
2023/04/24 04:28:04;;;;;;;2.85;1.65;;;;;;;18.26;52.08;100017.50;5037127;28;20349;-42
2023/04/24 04:30:31;;;;;;;1.77;1.38;;;;;;;18.26;51.66;100020.19;5034813;28;20037;-41
2023/04/24 04:32:59;;;;;;;3.85;1.40;;;;;;;18.25;51.92;100024.72;5036600;28;20051;-42
2023/04/24 04:35:26;;;;;;;2.50;1.63;;;;;;;18.24;52.07;100020.34;5031815;28;20048;-42
2023/04/24 04:37:52;;;;;;;2.45;1.40;;;;;;;18.23;51.58;100031.28;5036387;28;20056;-42
2023/04/24 04:40:19;;;;;;;2.58;1.70;;;;;;;18.23;51.38;100042.84;5038758;28;20045;-41
2023/04/24 04:42:45;;;;;;;2.15;1.42;;;;;;;18.23;51.79;100053.56;5034746;28;20057;-41
2023/04/24 04:45:12;;;;;;;2.28;1.42;;;;;;;18.21;52.01;100050.22;5040631;28;20055;-42
2023/04/24 04:47:39;;;;;;;2.35;1.60;;;;;;;18.21;52.00;100054.72;5033377;28;20484;-42
2023/04/24 04:50:06;;;;;;;2.13;1.40;;;;;;;18.20;52.04;100053.91;5032866;28;20511;-43
2023/04/24 04:52:33;;;;;;;1.90;1.10;;;;;;;18.19;51.89;100054.91;5032165;28;20057;-42
2023/04/24 04:54:59;;;;;;;2.55;1.50;;;;;;;18.18;52.04;100058.63;5031106;28;20050;-40
2023/04/24 04:57:26;;;;;;;2.92;1.90;;;;;;;18.18;51.96;100063.97;5032429;28;20046;-42
2023/04/24 04:59:53;;;;;;;2.42;1.73;;;;;;;18.17;52.29;100073.03;5033711;28;20152;-41
2023/04/24 05:02:20;;;;;;;2.25;1.60;;;;;;;18.17;51.80;100080.22;5032285;28;20403;-42
2023/04/24 05:04:47;;;;;;;3.03;2.10;;;;;;;18.16;52.13;100083.94;5031719;28;20217;-41
2023/04/24 05:07:14;;;;;;;3.08;1.98;;;;;;;18.15;52.12;100085.78;5033888;28;20049;-41
2023/04/24 05:09:40;;;;;;;3.88;2.30;;;;;;;18.14;51.63;100094.84;5034877;28;20443;-42
2023/04/24 05:12:07;;;;;;;3.85;2.28;;;;;;;18.13;51.81;100090.50;5048644;28;20088;-41
2023/04/24 05:14:34;;;;;;;2.38;1.67;;;;;;;18.13;52.43;100100.34;5036781;28;20064;-42
2023/04/24 05:17:00;;;;;;;5.07;1.83;;;;;;;18.11;52.09;100095.19;5034658;28;20068;-41
2023/04/24 05:19:27;;;;;;;2.40;1.67;;;;;;;18.11;52.09;100107.75;5035790;28;20053;-42
2023/04/24 05:21:54;;;;;;;3.08;2.05;;;;;;;18.10;52.30;100109.59;5037827;28;20134;-42
2023/04/24 05:24:20;;;;;;;2.95;1.85;;;;;;;18.09;52.27;100118.66;5035403;28;20155;-43
2023/04/24 05:26:47;;;;;;;2.47;1.77;;;;;;;18.10;52.37;100127.53;5039007;28;20056;-42
2023/04/24 05:29:14;;;;;;;2.67;1.90;;;;;;;18.11;52.29;100126.53;5035197;28;20051;-42
2023/04/24 05:31:40;;;;;;;2.33;1.75;;;;;;;18.10;51.99;100130.22;5038317;28;20052;-42
2023/04/24 05:34:07;;;;;;;3.53;2.00;;;;;;;18.10;52.15;100132.91;5031601;28;20162;-42
2023/04/24 05:36:34;;;;;;;2.97;1.90;;;;;;;18.09;51.70;100137.44;5041515;28;20064;-42
2023/04/24 05:39:00;;;;;;;2.40;1.65;;;;;;;18.09;52.04;100148.16;5041630;28;20119;-41
2023/04/24 05:41:27;;;;;;;2.65;1.73;;;;;;;18.08;52.50;100154.50;5038141;28;20472;-42
2023/04/24 05:43:53;;;;;;;3.58;2.10;;;;;;;18.08;51.99;100154.50;5040375;28;20067;-42
2023/04/24 05:46:20;;;;;;;2.58;1.85;;;;;;;18.08;51.86;100164.41;5039614;28;20256;-42
2023/04/24 05:48:46;;;;;;;3.78;2.60;;;;;;;18.07;51.94;100166.25;5036978;28;20080;-42
2023/04/24 05:51:13;;;;;;;2.92;2.08;;;;;;;18.07;51.89;100173.47;5040463;28;20051;-41
2023/04/24 05:53:40;;;;;;;3.78;2.13;;;;;;;18.08;51.96;100175.13;5041616;28;20049;-39
2023/04/24 05:56:06;;;;;;;3.83;2.05;;;;;;;18.08;52.26;100185.88;5039385;28;20045;-38
2023/04/24 05:58:33;;;;;;;3.05;2.17;;;;;;;18.06;52.19;100194.09;5041600;28;20317;-42
2023/04/24 06:01:01;;;;;;;2.67;2.00;;;;;;;18.04;52.37;100193.41;5037595;28;20069;-41
2023/04/24 06:03:27;;;;;;;3.20;2.20;;;;;;;18.05;52.11;100204.97;5037459;28;20045;-41
2023/04/24 06:05:54;;;;;;;3.78;2.33;;;;;;;18.05;51.81;100219.25;5037952;28;20061;-42
2023/04/24 06:08:21;;;;;;;4.05;2.75;;;;;;;18.03;52.06;100226.59;5042753;28;20322;-42
2023/04/24 06:10:47;;;;;;;4.32;2.55;;;;;;;18.03;52.46;100233.81;5033271;28;20468;-42
2023/04/24 06:13:14;;;;;;;4.22;3.10;;;;;;;18.02;52.41;100238.34;5035196;28;20527;-42
2023/04/24 06:15:40;;;;;;;4.05;2.70;;;;;;;18.02;52.49;100251.75;5033383;28;20463;-41
2023/04/24 06:18:09;;;;;;;4.53;3.20;;;;;;;18.00;52.26;100262.63;5030053;28;20452;-43
2023/04/24 06:20:36;;;;;;;4.15;2.40;;;;;;;18.00;52.25;100259.09;5037427;28;20053;-44
2023/04/24 06:23:03;;;;;;;4.20;2.45;;;;;;;18.00;52.47;100267.16;5040200;28;20084;-43
2023/04/24 06:25:29;;;;;;;4.97;2.90;;;;;;;17.99;52.71;100278.88;5041913;28;20348;-42
2023/04/24 06:27:56;;;;;;;4.72;3.05;;;;;;;17.98;52.38;100279.91;5033537;28;20099;-43
2023/04/24 06:30:23;;;;;;;5.10;3.03;;;;;;;17.98;52.46;100293.31;5033423;28;20092;-43
2023/04/24 06:32:50;;;;;;;5.13;2.97;;;;;;;17.97;52.70;100297.84;5030636;28;20064;-42
2023/04/24 06:35:17;;;;;;;5.00;2.85;;;;;;;17.96;52.47;100306.03;5036567;28;20443;-42
2023/04/24 06:37:43;;;;;;;4.75;2.88;;;;;;;17.95;52.78;100305.19;5034398;28;20057;-40
2023/04/24 06:40:10;;;;;;;4.20;2.65;;;;;;;17.94;52.42;100318.78;5033814;28;20049;-41
2023/04/24 06:42:37;;;;;;;4.13;2.53;;;;;;;17.94;52.78;100322.28;5033491;28;20137;-41
2023/04/24 06:45:04;;;;;;;5.70;3.50;;;;;;;17.93;52.69;100328.66;5036908;28;20063;-41
2023/04/24 06:47:31;;;;;;;5.75;2.78;;;;;;;17.94;52.75;100342.91;5032951;28;20045;-41
2023/04/24 06:49:58;;;;;;;4.93;2.92;;;;;;;17.93;52.59;100336.72;5034866;28;20057;-41
2023/04/24 06:52:25;;;;;;;6.57;2.97;;;;;;;17.92;52.48;100340.38;5035362;28;20227;-41
2023/04/24 06:54:51;;;;;;;7.30;3.45;;;;;;;17.91;52.40;100346.75;5035541;28;20140;-42
2023/04/24 06:57:19;;;;;;;4.43;2.83;;;;;;;17.91;53.06;100357.47;5031575;28;20069;-42
2023/04/24 06:59:46;;;;;;;5.28;3.20;;;;;;;17.91;52.79;100362.84;5038683;28;20136;-41
2023/04/24 07:02:12;;;;;;;4.70;2.95;;;;;;;17.91;52.86;100362.00;5034165;28;20038;-42
2023/04/24 07:04:39;;;;;;;5.05;3.22;;;;;;;17.90;52.88;100365.69;5028437;28;20417;-41
2023/04/24 07:07:06;;;;;;;4.63;2.78;;;;;;;17.90;52.91;100371.06;5026868;28;20056;-41
2023/04/24 07:09:35;;;;;;;5.95;2.80;;;;;;;17.89;52.53;100367.53;5033567;28;20057;-41
2023/04/24 07:12:01;;;;;;;3.72;2.80;;;;;;;17.89;52.98;100380.94;5031938;28;20383;-41
2023/04/24 07:14:28;;;;;;;5.22;3.15;;;;;;;17.89;52.55;100390.81;5033201;28;20139;-39
2023/04/24 07:16:54;;;;;;;5.80;2.95;;;;;;;17.89;52.79;100390.81;5035660;28;20077;-41
2023/04/24 07:19:21;;;;;;;7.70;3.60;;;;;;;17.89;52.75;100396.16;5030060;28;20451;-42
2023/04/24 07:21:47;;;;;;;3.53;2.47;;;;;;;17.89;52.32;100404.22;5037407;28;20049;-41
2023/04/24 07:24:14;;;;;;;6.32;2.83;;;;;;;17.88;52.82;100399.84;5037110;28;20049;-41
2023/04/24 07:26:41;;;;;;;4.10;2.45;;;;;;;17.89;52.77;100407.75;5031309;28;20488;-41
2023/04/24 07:29:08;;;;;;;5.82;3.05;;;;;;;17.87;52.78;100415.09;5034934;28;20084;-41
2023/04/24 07:31:34;;;;;;;4.63;2.90;;;;;;;17.88;52.39;100414.09;5028125;28;20045;-42
2023/04/24 07:34:01;;;;;;;6.78;2.92;;;;;;;17.88;52.52;100415.94;5036300;28;20453;-41
2023/04/24 07:36:28;;;;;;;6.90;3.50;;;;;;;17.88;52.73;100424.81;5035043;28;20122;-41
2023/04/24 07:38:56;;;;;;;5.72;2.85;;;;;;;17.89;52.36;100439.06;5035337;28;20056;-42
2023/04/24 07:41:23;;;;;;;8.60;3.25;;;;;;;17.89;52.32;100441.75;5036395;28;20073;-43
2023/04/24 07:43:51;;;;;;;4.88;2.83;;;;;;;17.88;52.45;100446.28;5030960;28;20058;-41
2023/04/24 07:46:17;;;;;;;7.20;2.78;;;;;;;17.89;52.97;100457.81;5033063;28;20539;-43
2023/04/24 07:48:44;;;;;;;7.32;2.88;;;;;;;17.88;52.70;100465.03;5035215;28;20051;-43
2023/04/24 07:51:13;;;;;;;6.35;3.25;;;;;;;17.89;52.70;100468.56;5035861;28;20042;-43
2023/04/24 07:53:40;;;;;;;7.32;3.05;;;;;;;17.89;52.71;100476.59;5033775;28;20045;-41
2023/04/24 07:56:06;;;;;;;5.13;2.65;;;;;;;17.88;52.15;100474.91;5033857;28;20056;-42
2023/04/24 07:58:34;;;;;;;6.75;3.20;;;;;;;17.88;52.38;100481.13;5035363;28;20432;-42
2023/04/24 08:01:00;;;;;;;5.32;2.70;;;;;;;17.88;52.77;100488.34;5034053;28;20439;-42
2023/04/24 08:03:27;;;;;;;4.65;2.45;;;;;;;17.88;52.44;100497.22;5031296;28;20366;-41
2023/04/24 08:05:54;;;;;;;5.32;2.22;;;;;;;17.88;52.70;100499.06;5025915;28;20582;-42
2023/04/24 08:08:22;;;;;;;6.28;2.53;;;;;;;17.89;52.54;100504.28;5034767;28;20553;-40
2023/04/24 08:10:50;;;;;;;6.50;2.42;;;;;;;17.89;52.60;100504.28;5036804;28;20053;-41
2023/04/24 08:13:16;;;;;;;9.15;2.58;;;;;;;17.91;52.45;100517.50;5036580;28;20041;-42
2023/04/24 08:15:43;;;;;;;6.38;2.72;;;;;;;17.90;52.73;100524.72;5037860;28;20187;-42
2023/04/24 08:18:11;;;;;;;6.43;2.65;;;;;;;17.92;52.63;100533.44;5033240;28;20052;-42
2023/04/24 08:20:38;;;;;;;8.52;2.60;;;;;;;17.93;52.08;100543.16;5035168;28;20050;-42
2023/04/24 08:23:05;;;;;;;5.55;2.67;;;;;;;17.95;52.57;100549.19;5037363;28;20144;-42
2023/04/24 08:25:32;;;;;;;7.38;2.97;;;;;;;17.97;52.44;100549.06;5035618;28;20068;-40
2023/04/24 08:27:58;;;;;;;9.32;3.10;;;;;;;17.97;52.35;100557.94;5036054;28;20064;-43
2023/04/24 08:30:25;;;;;;;6.80;2.55;;;;;;;17.98;52.18;100562.28;5029042;28;20049;-40
2023/04/24 08:32:51;;;;;;;7.00;2.78;;;;;;;18.00;52.10;100567.47;5032436;28;20133;-42
2023/04/24 08:35:18;;;;;;;8.05;2.85;;;;;;;18.01;52.16;100569.19;5032642;28;20053;-42
2023/04/24 08:37:45;;;;;;;6.18;3.00;;;;;;;18.01;52.18;100577.22;5033702;28;20541;-42
2023/04/24 08:40:16;;;;;;;5.97;2.45;;;;;;;18.02;52.54;100575.38;5037370;28;20048;-39
2023/04/24 08:42:43;;;;;;;10.18;2.40;;;;;;;18.02;52.04;100578.91;5034109;28;20041;-41
2023/04/24 08:45:12;;;;;;;7.13;2.58;;;;;;;18.03;51.90;100583.25;5013574;28;20057;-41
2023/04/24 08:47:40;;;;;;;5.40;2.40;;;;;;;18.05;51.88;100588.47;5032694;28;20054;-42
2023/04/24 08:50:08;;;;;;;4.47;2.30;;;;;;;18.04;51.97;100598.34;5035469;28;20445;-41
2023/04/24 08:52:35;;;;;;;6.65;2.50;;;;;;;18.03;52.38;100596.66;5034895;28;20056;-41
2023/04/24 08:55:02;;;;;;;9.50;2.30;;;;;;;18.03;52.26;100601.19;5032250;28;20135;-41
2023/04/24 08:57:30;;;;;;;6.78;2.45;;;;;;;18.02;51.76;100603.03;5034060;28;20054;-41
2023/04/24 08:59:58;;;;;;;7.97;1.98;;;;;;;18.02;52.02;100604.88;5039955;28;20052;-41
2023/04/24 09:02:25;;;;;;;6.50;2.20;;;;;;;18.00;52.05;100608.53;5036976;28;20441;-41
2023/04/24 09:04:52;;;;;;;5.68;2.85;;;;;;;18.04;51.98;100613.59;5034672;28;20177;-41
2023/04/24 09:07:22;;;;;;;9.10;2.00;;;;;;;18.11;51.87;100620.84;5029140;28;20406;-42
2023/04/24 09:09:51;;;;;;;9.07;2.72;;;;;;;18.22;51.93;100623.25;5034037;28;20054;-41
2023/04/24 09:12:18;;;;;;;6.85;2.58;;;;;;;18.33;51.71;100614.09;5027752;28;20049;-41
2023/04/24 09:14:45;;;;;;;7.45;2.50;;;;;;;18.44;51.66;100623.69;5033438;28;20136;-41
2023/04/24 09:17:12;;;;;;;6.68;2.85;;;;;;;18.52;51.82;100634.44;5033795;28;20046;-42
2023/04/24 09:19:40;;;;;;;7.80;2.55;;;;;;;18.60;51.67;100631.78;5037062;28;20079;-41
2023/04/24 09:22:07;;;;;;;9.40;2.35;;;;;;;18.67;51.25;100634.69;5026386;28;20045;-41
2023/04/24 09:24:35;;;;;;;10.57;2.85;;;;;;;18.71;51.19;100638.75;5034717;28;20100;-41
2023/04/24 09:27:02;;;;;;;6.60;2.38;;;;;;;18.74;51.12;100646.47;5028100;28;20059;-40
2023/04/24 09:29:28;;;;;;;4.47;2.10;;;;;;;18.78;50.87;100642.47;5034092;28;20106;-41
2023/04/24 09:31:55;;;;;;;4.35;2.03;;;;;;;18.81;51.03;100636.75;5026946;28;20345;-41
2023/04/24 09:34:23;;;;;;;6.65;2.22;;;;;;;18.86;50.79;100652.41;5030792;28;20041;-40
2023/04/24 09:36:51;;;;;;;7.57;1.80;;;;;;;18.88;51.29;100650.38;5030533;28;20372;-42
2023/04/24 09:39:20;;;;;;;8.82;2.40;;;;;;;18.90;50.98;100651.06;5034435;28;20068;-42
2023/04/24 09:41:51;;;;;;;7.55;2.05;;;;;;;18.92;51.05;100659.78;5033344;28;20055;-41
2023/04/24 09:44:23;;;;;;;4.93;2.00;;;;;;;18.94;50.33;100666.69;5032963;28;20051;-40
2023/04/24 09:46:59;;;;;;;5.20;2.28;;;;;;;18.95;50.65;100672.88;5032193;28;20057;-41
2023/04/24 09:49:28;;;;;;;5.55;1.75;;;;;;;18.96;50.22;100671.88;5031009;28;20476;-38
2023/04/24 09:52:06;;;;;;;7.50;1.80;;;;;;;18.94;50.18;100674.75;5029997;28;20054;-42
2023/04/24 09:54:33;;;;;;;6.95;2.35;;;;;;;18.96;50.33;100677.25;5029323;28;20041;-41
2023/04/24 09:57:00;;;;;;;4.00;1.80;;;;;;;18.95;50.12;100699.75;5030858;28;20085;-42
2023/04/24 09:59:27;;;;;;;5.38;2.30;;;;;;;18.93;50.21;100702.56;5033500;28;20045;-42
2023/04/24 10:01:55;;;;;;;5.68;1.95;;;;;;;18.92;50.12;100705.44;5035279;28;20372;-40
2023/04/24 10:04:24;;;;;;;3.50;1.70;;;;;;;18.91;50.81;100717.19;5031518;28;20056;-42
2023/04/24 10:06:52;;;;;;;5.90;2.08;;;;;;;18.90;50.64;100702.94;5030425;28;20060;-40
2023/04/24 10:09:21;;;;;;;5.35;1.75;;;;;;;18.90;50.34;100710.16;5028803;28;20359;-41
2023/04/24 10:11:51;;;;;;;5.47;1.60;;;;;;;18.91;50.70;100701.06;5031953;28;20127;-41
2023/04/24 10:14:22;;;;;;;4.28;2.13;;;;;;;18.93;50.57;100707.94;5030949;28;20132;-42
2023/04/24 10:16:52;;;;;;;7.00;1.95;;;;;;;18.92;50.12;100713.50;5032608;28;20404;-40
2023/04/24 10:19:18;;;;;;;4.65;2.05;;;;;;;18.93;50.52;100712.47;5036415;28;20046;-40
2023/04/24 10:21:48;;;;;;;5.95;2.13;;;;;;;18.94;50.45;100706.13;5033091;28;20119;-41
2023/04/24 10:24:16;;;;;;;4.55;1.90;;;;;;;18.94;50.34;100708.81;5039482;28;20049;-42
2023/04/24 10:26:45;;;;;;;6.70;1.83;;;;;;;18.94;50.71;100716.88;5034305;28;20053;-42
2023/04/24 10:29:15;;;;;;;5.68;1.52;;;;;;;18.95;50.50;100711.31;5038525;28;20056;-41
2023/04/24 10:31:43;;;;;;;5.50;1.55;;;;;;;18.96;50.28;100715.69;5039576;28;20045;-42
2023/04/24 10:34:10;;;;;;;6.13;1.65;;;;;;;18.96;50.55;100723.75;5029126;28;20107;-42
2023/04/24 10:36:41;;;;;;;3.45;1.50;;;;;;;18.98;50.53;100723.59;5031557;28;20052;-42
2023/04/24 10:39:11;;;;;;;3.53;1.27;;;;;;;19.01;50.77;100720.56;5036716;28;20045;-41
2023/04/24 10:41:38;;;;;;;6.38;1.80;;;;;;;19.06;50.38;100718.25;5034972;28;20103;-42
2023/04/24 10:44:08;;;;;;;5.05;1.83;;;;;;;19.09;50.43;100717.91;5036381;28;20332;-42
2023/04/24 10:46:35;;;;;;;5.55;1.30;;;;;;;19.11;50.54;100720.44;5021942;28;20049;-42
2023/04/24 10:49:07;;;;;;;3.35;1.45;;;;;;;19.12;50.79;100730.19;5037487;28;20055;-42
2023/04/24 10:51:51;;;;;;;3.38;1.08;;;;;;;19.11;50.27;100742.78;5038247;28;20053;-39
2023/04/24 10:54:51;;;;;;;4.80;1.23;;;;;;;19.12;50.06;100755.19;5035702;28;20073;-42
2023/04/24 10:57:19;;;;;;;4.28;1.63;;;;;;;19.13;50.02;100751.50;5036302;28;20426;-41
2023/04/24 10:59:47;;;;;;;3.28;1.38;;;;;;;19.13;50.06;100764.09;5037678;28;20423;-40
2023/04/24 11:02:17;;;;;;;2.85;1.50;;;;;;;19.11;49.71;100768.81;5035229;28;20056;-41
2023/04/24 11:04:47;;;;;;;3.00;1.17;;;;;;;19.08;49.50;100766.44;5027590;28;20060;-41
2023/04/24 11:07:13;;;;;;;4.10;1.60;;;;;;;19.01;49.80;100766.22;5040482;28;20076;-42
2023/04/24 11:09:42;;;;;;;5.00;1.55;;;;;;;18.95;49.65;100765.03;5036333;28;20136;-42
2023/04/24 11:12:11;;;;;;;2.47;1.10;;;;;;;18.94;49.89;100775.97;5039381;28;20056;-42
2023/04/24 11:14:56;;;;;;;3.28;1.15;;;;;;;18.89;50.11;100784.47;5050290;28;20057;-43
2023/04/24 11:17:34;;;;;;;3.95;1.55;;;;;;;18.86;50.28;100781.28;5035283;28;20486;-42
2023/04/24 11:20:09;;;;;;;6.53;1.17;;;;;;;18.86;50.42;100782.13;5033009;28;20049;-41
2023/04/24 11:22:54;;;;;;;4.03;1.20;;;;;;;18.89;50.41;100792.53;5038080;28;20045;-42
2023/04/24 11:25:22;;;;;;;3.55;0.90;;;;;;;18.92;50.82;100791.38;5035404;28;20056;-42
2023/04/24 11:27:50;;;;;;;3.65;1.17;;;;;;;18.95;50.53;100788.38;5037764;28;20060;-42
2023/04/24 11:30:19;;;;;;;4.47;1.27;;;;;;;18.98;50.52;100796.13;5036336;28;20437;-41